createdAt,value
2022-09-30T00:01:32.714Z,8.55
2022-09-30T00:04:01.170Z,7.35
2022-09-30T00:06:30.506Z,6.65
2022-09-30T00:08:59.004Z,7.55
2022-09-30T00:11:31.157Z,8.80
2022-09-30T00:14:01.106Z,12.43
2022-09-30T00:16:31.587Z,7.93
2022-09-30T00:21:29.254Z,10.45
2022-09-30T00:23:57.858Z,7.85
2022-09-30T00:26:26.258Z,9.00
2022-09-30T00:28:56.910Z,14.07
2022-09-30T00:31:28.936Z,9.23
2022-09-30T00:34:09.038Z,5.13
2022-09-30T00:36:40.553Z,6.47
2022-09-30T00:39:10.102Z,7.28
2022-09-30T00:41:39.194Z,8.57
2022-09-30T00:44:56.007Z,6.78
2022-09-30T00:47:43.472Z,8.80
2022-09-30T00:50:19.872Z,6.13
2022-09-30T00:52:52.758Z,8.30
2022-09-30T00:55:37.707Z,9.90
2022-09-30T00:58:09.757Z,9.88
2022-09-30T01:00:38.374Z,8.02
2022-09-30T01:03:08.259Z,11.07
2022-09-30T01:05:36.498Z,7.97
2022-09-30T01:08:07.429Z,8.75
2022-09-30T01:14:59.772Z,7.18
2022-09-30T01:17:37.898Z,7.93
2022-09-30T01:20:48.285Z,11.25
2022-09-30T01:23:33.230Z,8.23
2022-09-30T01:26:21.325Z,8.65
2022-09-30T01:29:16.159Z,11.65
2022-09-30T01:31:55.114Z,18.75
2022-09-30T01:34:37.435Z,186.13
2022-09-30T01:37:11.668Z,222.70
2022-09-30T01:39:48.557Z,344.25
2022-09-30T01:42:23.803Z,270.40
2022-09-30T01:45:02.777Z,103.15
2022-09-30T01:47:37.154Z,75.38
2022-09-30T01:50:11.346Z,32.13
2022-09-30T01:52:44.709Z,34.10
2022-09-30T01:55:18.393Z,36.47
2022-09-30T01:57:55.703Z,59.40
2022-09-30T02:00:24.647Z,40.40
2022-09-30T02:02:57.966Z,141.23
2022-09-30T02:05:30.246Z,180.20
2022-09-30T02:08:01.890Z,211.15
2022-09-30T02:10:35.050Z,83.22
2022-09-30T02:13:17.908Z,59.45
2022-09-30T02:15:52.899Z,38.60
2022-09-30T02:18:29.323Z,107.05
2022-09-30T02:21:04.019Z,111.30
2022-09-30T02:23:35.384Z,137.90
2022-09-30T02:26:07.517Z,142.90
2022-09-30T02:28:39.587Z,202.95
2022-09-30T02:31:11.217Z,203.50
2022-09-30T02:33:46.307Z,161.68
2022-09-30T02:36:22.010Z,187.98
2022-09-30T02:38:57.581Z,176.77
2022-09-30T02:41:29.655Z,94.10
2022-09-30T02:43:58.827Z,137.00
2022-09-30T02:46:35.179Z,94.78
2022-09-30T02:49:11.068Z,57.38
2022-09-30T02:51:46.184Z,71.93
2022-09-30T02:54:23.078Z,76.53
2022-09-30T02:56:56.221Z,75.35
2022-09-30T02:59:25.684Z,73.40
2022-09-30T03:01:53.696Z,139.13
2022-09-30T03:04:26.585Z,95.15
2022-09-30T03:06:55.595Z,87.20
2022-09-30T03:09:26.204Z,76.20
2022-09-30T03:12:03.162Z,36.25
2022-09-30T03:15:05.720Z,76.28
2022-09-30T03:17:53.362Z,82.40
2022-09-30T03:20:35.296Z,67.45
2022-09-30T03:23:25.299Z,99.45
2022-09-30T03:26:00.010Z,92.72
2022-09-30T03:28:34.261Z,38.63
2022-09-30T03:31:07.615Z,35.08
2022-09-30T03:33:44.267Z,54.28
2022-09-30T03:36:23.988Z,45.80
2022-09-30T03:39:02.025Z,31.65
2022-09-30T03:41:35.497Z,38.33
2022-09-30T03:44:10.636Z,65.65
2022-09-30T03:46:43.061Z,45.45
2022-09-30T03:49:14.550Z,75.40
2022-09-30T03:51:43.872Z,60.75
2022-09-30T03:54:13.466Z,29.23
2022-09-30T03:56:43.189Z,103.70
2022-09-30T03:59:21.832Z,165.98
2022-09-30T04:01:49.875Z,57.92
2022-09-30T04:04:18.004Z,47.35
2022-09-30T04:06:47.336Z,34.45
2022-09-30T04:09:15.397Z,60.88
2022-09-30T04:11:43.520Z,92.88
2022-09-30T04:14:11.461Z,49.35
2022-09-30T04:16:39.316Z,115.32
2022-09-30T04:19:08.458Z,113.25
2022-09-30T04:21:36.340Z,31.83
2022-09-30T04:24:05.968Z,108.03
2022-09-30T04:26:33.826Z,16.77
2022-09-30T04:29:01.702Z,30.25
2022-09-30T04:31:29.730Z,58.20
2022-09-30T04:33:58.056Z,33.50
2022-09-30T04:36:25.947Z,21.77
2022-09-30T04:38:54.149Z,23.73
2022-09-30T04:41:23.959Z,44.60
2022-09-30T04:43:52.129Z,21.13
2022-09-30T04:46:22.626Z,61.80
2022-09-30T04:51:21.968Z,60.42
2022-09-30T04:53:50.486Z,63.83
2022-09-30T04:56:19.295Z,27.20
2022-09-30T04:58:48.663Z,71.40
2022-09-30T05:01:18.291Z,135.45
2022-09-30T05:03:47.752Z,132.02
2022-09-30T05:06:27.686Z,146.45
2022-09-30T05:09:04.977Z,120.55
2022-09-30T05:12:03.357Z,121.93
2022-09-30T05:14:55.758Z,214.63
2022-09-30T05:17:26.527Z,184.13
2022-09-30T05:19:54.766Z,209.90
2022-09-30T05:22:24.967Z,237.13
2022-09-30T05:25:09.969Z,187.93
2022-09-30T05:27:45.873Z,102.03
2022-09-30T05:33:33.804Z,92.28
2022-09-30T05:40:24.322Z,88.00
2022-09-30T05:42:53.365Z,90.70
2022-09-30T05:45:23.339Z,82.68
2022-09-30T05:47:53.686Z,81.13
2022-09-30T05:50:26.360Z,81.05
2022-09-30T05:52:55.073Z,54.25
2022-09-30T05:55:23.840Z,57.38
2022-09-30T05:57:53.722Z,68.80
2022-09-30T06:01:22.833Z,94.07
2022-09-30T06:04:14.649Z,79.88
2022-09-30T06:06:47.392Z,89.57
2022-09-30T06:09:19.417Z,72.28
2022-09-30T06:11:59.386Z,74.97
2022-09-30T06:14:29.144Z,69.35
2022-09-30T06:17:00.534Z,105.85
2022-09-30T06:19:31.649Z,73.70
2022-09-30T06:22:00.822Z,73.82
2022-09-30T06:24:29.396Z,64.50
2022-09-30T06:26:58.107Z,142.20
2022-09-30T06:29:26.651Z,88.57
2022-09-30T06:31:55.560Z,79.45
2022-09-30T06:34:25.782Z,168.55
2022-09-30T06:36:54.501Z,120.07
2022-09-30T06:39:27.227Z,155.90
2022-09-30T06:41:56.646Z,154.52
2022-09-30T06:44:30.624Z,123.45
2022-09-30T06:46:59.994Z,96.10
2022-09-30T06:49:40.829Z,109.97
2022-09-30T06:52:13.232Z,136.70
2022-09-30T06:54:43.861Z,113.90
2022-09-30T06:59:40.930Z,111.47
2022-09-30T07:02:11.055Z,56.08
2022-09-30T07:04:40.866Z,85.07
2022-09-30T07:07:11.010Z,77.47
2022-09-30T07:09:39.794Z,121.28
2022-09-30T07:12:09.542Z,92.63
2022-09-30T07:14:59.171Z,54.78
2022-09-30T07:17:28.653Z,82.70
2022-09-30T07:20:05.071Z,72.68
2022-09-30T07:22:34.772Z,94.00
2022-09-30T07:25:05.030Z,54.03
2022-09-30T07:27:35.476Z,30.60
2022-09-30T07:30:09.459Z,39.85
2022-09-30T07:32:41.298Z,145.23
2022-09-30T07:35:26.336Z,49.45
2022-09-30T07:37:57.977Z,27.88
2022-09-30T07:40:29.430Z,107.50
2022-09-30T07:43:09.058Z,44.72
2022-09-30T07:45:38.611Z,56.75
2022-09-30T07:48:27.537Z,21.95
2022-09-30T07:51:02.632Z,56.63
2022-09-30T07:53:33.997Z,51.88
2022-09-30T07:56:10.831Z,21.77
2022-09-30T07:58:40.810Z,89.35
2022-09-30T08:01:10.383Z,65.68
2022-09-30T08:03:44.733Z,34.88
2022-09-30T08:06:17.968Z,51.60
2022-09-30T08:08:47.743Z,41.08
2022-09-30T08:11:16.694Z,35.35
2022-09-30T08:13:55.823Z,43.17
2022-09-30T08:16:26.211Z,31.23
2022-09-30T08:18:56.224Z,35.83
2022-09-30T08:21:27.239Z,16.52
2022-09-30T08:23:57.635Z,65.30
2022-09-30T08:26:35.105Z,39.13
2022-09-30T08:29:06.227Z,84.75
2022-09-30T08:31:37.768Z,15.05
2022-09-30T08:34:06.552Z,20.80
2022-09-30T08:36:36.721Z,39.60
2022-09-30T08:39:06.348Z,26.95
2022-09-30T08:42:13.685Z,48.47
2022-09-30T08:44:52.303Z,28.05
2022-09-30T08:50:14.324Z,14.02
2022-09-30T08:52:49.286Z,22.17
2022-09-30T08:55:40.621Z,30.30
2022-09-30T08:58:18.460Z,43.33
2022-09-30T09:00:47.250Z,15.35
2022-09-30T09:03:20.630Z,13.85
2022-09-30T09:05:56.834Z,50.88
2022-09-30T09:08:34.717Z,23.80
2022-09-30T09:11:09.164Z,16.40
2022-09-30T09:13:50.197Z,15.95
2022-09-30T09:16:27.098Z,14.05
2022-09-30T09:19:04.299Z,24.83
2022-09-30T09:21:47.004Z,17.50
2022-09-30T09:24:21.311Z,16.38
2022-09-30T09:26:51.223Z,15.20
2022-09-30T09:29:34.023Z,15.38
2022-09-30T09:32:03.805Z,13.98
2022-09-30T09:34:35.839Z,22.17
2022-09-30T09:37:19.138Z,22.02
2022-09-30T09:40:05.536Z,25.48
2022-09-30T09:42:52.059Z,23.85
2022-09-30T09:45:29.323Z,19.52
2022-09-30T09:47:59.794Z,15.20
2022-09-30T09:50:37.604Z,19.00
2022-09-30T09:53:22.687Z,15.68
2022-09-30T09:55:57.202Z,15.57
2022-09-30T09:58:25.991Z,15.80
2022-09-30T10:01:27.893Z,16.13
2022-09-30T10:04:21.980Z,14.20
2022-09-30T10:06:53.357Z,17.73
2022-09-30T10:09:33.312Z,16.15
2022-09-30T10:12:29.277Z,16.17
2022-09-30T10:15:01.858Z,17.42
2022-09-30T10:17:31.869Z,18.80
2022-09-30T10:20:05.778Z,19.70
2022-09-30T10:22:34.152Z,19.13
2022-09-30T10:25:18.005Z,18.05
2022-09-30T10:27:54.743Z,18.02
2022-09-30T10:30:46.798Z,17.55
2022-09-30T10:33:23.159Z,17.23
2022-09-30T10:35:55.570Z,17.40
2022-09-30T10:38:26.088Z,19.77
2022-09-30T10:43:26.438Z,16.40
2022-09-30T10:46:20.816Z,16.05
2022-09-30T10:48:49.497Z,15.32
2022-09-30T10:51:25.415Z,15.15
2022-09-30T10:53:54.531Z,16.50
2022-09-30T10:56:53.263Z,14.88
2022-09-30T10:59:31.816Z,13.45
2022-09-30T11:02:17.861Z,13.35
2022-09-30T11:04:51.082Z,13.25
2022-09-30T11:07:27.788Z,14.00
2022-09-30T11:10:03.447Z,11.02
2022-09-30T11:12:42.909Z,11.73
2022-09-30T11:15:20.036Z,12.77
2022-09-30T11:17:55.768Z,10.98
2022-09-30T11:20:29.004Z,12.07
2022-09-30T11:23:03.651Z,13.80
2022-09-30T11:25:42.159Z,12.73
2022-09-30T11:28:27.228Z,12.43
2022-09-30T11:31:07.317Z,13.70
2022-09-30T11:34:11.132Z,12.45
2022-09-30T11:36:49.419Z,10.73
2022-09-30T11:39:37.563Z,13.75
2022-09-30T11:42:12.946Z,11.10
2022-09-30T11:44:44.190Z,11.63
2022-09-30T11:47:35.437Z,8.25
2022-09-30T11:50:26.511Z,10.05
2022-09-30T11:53:07.854Z,7.97
2022-09-30T11:55:57.533Z,7.53
2022-09-30T11:58:41.442Z,6.90
2022-09-30T12:01:21.330Z,5.43
2022-09-30T12:03:57.888Z,6.10
2022-09-30T12:06:31.695Z,8.85
2022-09-30T12:09:07.090Z,6.15
2022-09-30T12:11:41.131Z,8.25
2022-09-30T12:14:17.090Z,5.88
2022-09-30T12:16:48.025Z,5.88
2022-09-30T12:19:25.426Z,5.32
2022-09-30T12:21:59.008Z,6.03
2022-09-30T12:24:33.318Z,5.35
2022-09-30T12:27:01.961Z,7.03
2022-09-30T12:29:50.916Z,5.95
2022-09-30T12:32:36.698Z,5.90
2022-09-30T12:35:25.084Z,7.07
2022-09-30T12:38:07.675Z,5.63
2022-09-30T12:40:53.130Z,5.53
2022-09-30T12:43:41.839Z,5.82
2022-09-30T12:46:16.794Z,5.22
2022-09-30T12:48:48.678Z,4.40
2022-09-30T12:51:27.965Z,5.78
2022-09-30T12:54:03.736Z,4.30
2022-09-30T12:56:34.071Z,4.90
2022-09-30T12:59:03.804Z,9.02
2022-09-30T13:01:36.051Z,5.75
2022-09-30T13:04:18.844Z,5.68
2022-09-30T13:07:08.284Z,6.07
2022-09-30T13:09:37.714Z,5.10
2022-09-30T13:12:18.379Z,6.35
2022-09-30T13:14:46.247Z,5.05
2022-09-30T13:17:36.222Z,5.10
2022-09-30T13:20:42.890Z,6.00
2022-09-30T13:23:40.730Z,4.82
2022-09-30T13:26:53.496Z,4.95
2022-09-30T13:29:39.893Z,6.32
2022-09-30T13:32:11.914Z,5.38
2022-09-30T13:34:59.876Z,4.25
2022-09-30T13:37:45.411Z,4.63
2022-09-30T13:40:32.880Z,5.25
2022-09-30T13:43:15.712Z,5.68
2022-09-30T13:45:46.995Z,6.03
2022-09-30T13:48:20.484Z,6.40
2022-09-30T13:50:51.426Z,4.95
2022-09-30T13:53:28.677Z,5.72
2022-09-30T13:56:02.253Z,4.22
2022-09-30T13:59:27.065Z,4.55
2022-09-30T14:02:40.871Z,6.85
2022-09-30T14:05:27.246Z,4.38
2022-09-30T14:08:18.942Z,5.30
2022-09-30T14:11:04.512Z,4.07
2022-09-30T14:13:45.727Z,5.32
2022-09-30T14:16:41.760Z,6.30
2022-09-30T14:19:46.939Z,9.65
2022-09-30T14:22:16.409Z,6.18
2022-09-30T14:24:44.451Z,7.20
2022-09-30T14:27:34.522Z,7.10
2022-09-30T14:30:07.864Z,5.50
2022-09-30T14:32:42.666Z,7.85
2022-09-30T14:35:16.356Z,9.82
2022-09-30T14:37:48.220Z,11.90
2022-09-30T14:40:19.376Z,8.25
2022-09-30T14:42:50.046Z,8.52
2022-09-30T14:45:22.896Z,10.38
2022-09-30T14:47:53.459Z,7.20
2022-09-30T14:52:57.096Z,5.30
2022-09-30T14:55:32.012Z,4.68
2022-09-30T14:58:23.403Z,5.18
2022-09-30T15:00:59.682Z,4.68
2022-09-30T15:03:28.995Z,5.20
2022-09-30T15:05:57.939Z,6.47
2022-09-30T15:08:25.886Z,7.38
2022-09-30T15:10:56.092Z,7.93
2022-09-30T15:13:28.832Z,6.40
2022-09-30T15:15:56.751Z,6.20
2022-09-30T15:18:31.305Z,5.72
2022-09-30T15:21:02.488Z,10.48
2022-09-30T15:23:32.075Z,5.53
2022-09-30T15:26:01.421Z,6.60
2022-09-30T15:28:30.735Z,5.88
2022-09-30T15:30:59.879Z,5.15
2022-09-30T15:33:31.810Z,6.20
2022-09-30T15:36:08.223Z,6.10
2022-09-30T15:38:38.465Z,7.60
2022-09-30T15:41:10.025Z,7.38
2022-09-30T15:43:42.399Z,3.80
2022-09-30T15:46:35.413Z,7.43
2022-09-30T15:49:05.705Z,7.45
2022-09-30T15:51:37.272Z,6.53
2022-09-30T15:54:31.891Z,6.65
2022-09-30T15:57:03.298Z,5.47
2022-09-30T16:00:00.692Z,8.32
2022-09-30T16:02:31.416Z,6.70
2022-09-30T16:05:02.853Z,6.05
2022-09-30T16:07:32.629Z,6.82
2022-09-30T16:10:00.746Z,6.40
2022-09-30T16:12:33.709Z,5.53
2022-09-30T16:15:09.914Z,6.60
2022-09-30T16:17:39.744Z,5.35
2022-09-30T16:20:21.848Z,5.50
2022-09-30T16:22:52.281Z,6.00
2022-09-30T16:25:23.605Z,5.80
2022-09-30T16:27:57.704Z,5.55
2022-09-30T16:30:28.149Z,8.13
2022-09-30T16:32:59.515Z,6.00
2022-09-30T16:35:29.317Z,9.60
2022-09-30T16:38:02.278Z,10.50
2022-09-30T16:40:31.460Z,10.35
2022-09-30T16:43:01.388Z,10.68
2022-09-30T16:45:32.704Z,8.00
2022-09-30T16:48:02.549Z,7.10
2022-09-30T16:50:35.087Z,7.90
2022-09-30T16:53:02.894Z,7.07
2022-09-30T16:55:31.193Z,12.27
2022-09-30T16:58:00.081Z,11.88
2022-09-30T17:00:29.087Z,21.02
2022-09-30T17:02:58.289Z,14.52
2022-09-30T17:05:27.866Z,11.43
2022-09-30T17:07:57.154Z,10.63
2022-09-30T17:10:28.980Z,10.30
2022-09-30T17:12:57.562Z,9.32
2022-09-30T17:15:25.443Z,11.57
2022-09-30T17:17:53.762Z,9.40
2022-09-30T17:20:24.162Z,13.10
2022-09-30T17:22:52.164Z,5.50
2022-09-30T17:25:20.247Z,7.80
2022-09-30T17:27:49.868Z,6.38
2022-09-30T17:30:18.303Z,6.90
2022-09-30T17:32:46.558Z,5.78
2022-09-30T17:35:14.955Z,5.95
2022-09-30T17:37:46.381Z,8.82
2022-09-30T17:40:32.431Z,10.95
2022-09-30T17:43:11.058Z,11.80
2022-09-30T17:45:41.040Z,11.95
2022-09-30T17:48:09.555Z,9.38
2022-09-30T17:50:37.882Z,8.32
2022-09-30T17:53:07.776Z,14.02
2022-09-30T17:55:35.856Z,11.30
2022-09-30T17:58:04.006Z,12.88
2022-09-30T18:00:32.538Z,11.20
2022-09-30T18:03:00.623Z,11.50
2022-09-30T18:05:28.444Z,8.50
2022-09-30T18:07:57.126Z,11.63
2022-09-30T18:10:26.918Z,15.43
2022-09-30T18:12:55.440Z,13.98
2022-09-30T18:15:23.773Z,17.80
2022-09-30T18:17:51.593Z,11.00
2022-09-30T18:20:21.974Z,16.70
2022-09-30T18:22:52.584Z,14.48
2022-09-30T18:25:23.793Z,12.45
2022-09-30T18:27:54.761Z,10.95
2022-09-30T18:30:22.703Z,11.98
2022-09-30T18:32:52.055Z,13.20
2022-09-30T18:35:21.913Z,13.75
2022-09-30T18:37:50.840Z,10.85
2022-09-30T18:40:19.738Z,11.07
2022-09-30T18:42:49.068Z,11.35
2022-09-30T18:45:18.738Z,9.98
2022-09-30T18:47:46.550Z,11.93
2022-09-30T18:50:17.961Z,11.48
2022-09-30T18:52:45.882Z,12.65
2022-09-30T18:55:13.737Z,8.52
2022-09-30T18:57:41.754Z,11.85
2022-09-30T19:00:11.459Z,12.68
2022-09-30T19:02:40.826Z,18.02
2022-09-30T19:05:09.501Z,22.10
2022-09-30T19:07:38.549Z,18.77
2022-09-30T19:10:07.490Z,9.57
2022-09-30T19:12:36.449Z,11.27
2022-09-30T19:15:04.436Z,9.02
2022-09-30T19:17:33.022Z,10.90
2022-09-30T19:20:02.636Z,15.80
2022-09-30T19:22:31.232Z,11.93
2022-09-30T19:24:59.009Z,11.10
2022-09-30T19:27:26.927Z,9.07
2022-09-30T19:29:59.210Z,8.98
2022-09-30T19:32:29.478Z,10.40
2022-09-30T19:35:05.642Z,10.00
2022-09-30T19:37:35.477Z,12.95
2022-09-30T19:40:19.772Z,8.73
2022-09-30T19:42:49.602Z,13.45
2022-09-30T19:45:22.460Z,11.60
2022-09-30T19:47:52.267Z,10.18
2022-09-30T19:50:20.121Z,10.07
2022-09-30T19:52:56.762Z,15.23
2022-09-30T19:55:25.886Z,10.85
2022-09-30T19:57:54.030Z,16.92
2022-09-30T20:00:21.957Z,16.00
2022-09-30T20:02:50.671Z,13.77
2022-09-30T20:05:18.982Z,10.80
2022-09-30T20:07:50.904Z,15.00
2022-09-30T20:10:20.478Z,13.65
2022-09-30T20:12:48.267Z,9.13
2022-09-30T20:15:33.769Z,16.00
2022-09-30T20:18:01.578Z,9.27
2022-09-30T20:20:37.287Z,12.65
2022-09-30T20:23:05.503Z,9.52
2022-09-30T20:25:36.284Z,10.82
2022-09-30T20:28:05.137Z,13.27
2022-09-30T20:30:33.876Z,18.27
2022-09-30T20:33:02.059Z,14.05
2022-09-30T20:35:29.870Z,16.77
2022-09-30T20:37:57.680Z,16.83
2022-09-30T20:40:25.543Z,9.43
2022-09-30T20:42:59.294Z,14.27
2022-09-30T20:45:29.116Z,12.73
2022-09-30T20:47:56.970Z,7.95
2022-09-30T20:50:35.829Z,11.23
2022-09-30T20:53:05.505Z,9.13
2022-09-30T20:55:35.181Z,9.40
2022-09-30T20:58:04.657Z,10.67
2022-09-30T21:00:33.106Z,9.18
2022-09-30T21:03:00.941Z,9.55
2022-09-30T21:05:30.105Z,9.75
2022-09-30T21:07:58.017Z,10.40
2022-09-30T21:10:26.295Z,8.38
2022-09-30T21:12:55.188Z,8.90
2022-09-30T21:15:24.513Z,10.63
2022-09-30T21:17:54.333Z,9.20
2022-09-30T21:20:22.521Z,7.90
2022-09-30T21:22:53.379Z,7.68
2022-09-30T21:25:21.253Z,10.18
2022-09-30T21:27:49.784Z,7.15
2022-09-30T21:30:19.270Z,8.73
2022-09-30T21:32:48.858Z,12.23
2022-09-30T21:35:16.993Z,12.43
2022-09-30T21:37:44.890Z,7.63
2022-09-30T21:40:13.168Z,9.10
2022-09-30T21:42:41.401Z,7.93
2022-09-30T21:45:10.261Z,8.88
2022-09-30T21:47:38.137Z,17.75
2022-09-30T21:50:08.601Z,10.52
2022-09-30T21:52:38.071Z,9.90
2022-09-30T21:55:07.282Z,8.88
2022-09-30T21:57:35.435Z,9.15
2022-09-30T22:00:03.591Z,9.18
2022-09-30T22:02:41.704Z,8.52
2022-09-30T22:05:11.613Z,11.73
2022-09-30T22:07:39.856Z,11.00
2022-09-30T22:10:08.938Z,8.73
2022-09-30T22:12:36.753Z,9.65
2022-09-30T22:15:04.966Z,10.85
2022-09-30T22:17:33.031Z,11.50
2022-09-30T22:20:01.125Z,12.90
2022-09-30T22:22:30.330Z,11.85
2022-09-30T22:24:58.095Z,10.43
2022-09-30T22:27:25.951Z,10.23
2022-09-30T22:29:53.763Z,12.18
2022-09-30T22:32:21.606Z,12.23
2022-09-30T22:35:06.912Z,10.80
2022-09-30T22:38:01.931Z,13.77
2022-09-30T22:40:30.236Z,14.38
2022-09-30T22:42:58.155Z,11.18
2022-09-30T22:45:26.447Z,11.10
2022-09-30T22:47:55.307Z,12.27
2022-09-30T22:50:25.164Z,9.52
2022-09-30T22:52:54.375Z,11.45
2022-09-30T22:55:22.280Z,11.55
2022-09-30T22:57:50.070Z,10.57
2022-09-30T23:00:17.987Z,9.13
2022-09-30T23:02:45.816Z,13.10
2022-09-30T23:05:15.396Z,12.32
2022-09-30T23:07:43.200Z,12.20
2022-09-30T23:10:12.691Z,11.43
2022-09-30T23:12:40.966Z,10.73
2022-09-30T23:15:09.343Z,12.75
2022-09-30T23:17:37.131Z,12.30
2022-09-30T23:20:05.495Z,10.32
2022-09-30T23:22:33.503Z,11.40
2022-09-30T23:25:02.474Z,12.68
2022-09-30T23:27:31.623Z,11.30
2022-09-30T23:29:59.440Z,11.15
2022-09-30T23:32:27.424Z,10.95
2022-09-30T23:34:55.228Z,14.63
2022-09-30T23:37:23.062Z,12.68
2022-09-30T23:39:50.804Z,11.82
2022-09-30T23:42:18.865Z,10.30
2022-09-30T23:44:48.026Z,11.00
2022-09-30T23:47:18.789Z,13.48
2022-09-30T23:49:46.782Z,12.68
2022-09-30T23:52:15.287Z,12.32
2022-09-30T23:54:43.488Z,13.75
2022-09-30T23:57:11.987Z,12.68
2022-09-30T23:59:39.925Z,11.75
